sensor_id;sensor_type;location;lat;lon;timestamp;pressure;altitude;pressure_sealevel;temperature
20736;BMP180;10528;52.124;5.196;2023-02-01T00:01:06;101829.00;;;12.00
20736;BMP180;10528;52.124;5.196;2023-02-01T00:03:33;101823.00;;;12.00
20736;BMP180;10528;52.124;5.196;2023-02-01T00:06:01;101827.00;;;12.00
20736;BMP180;10528;52.124;5.196;2023-02-01T00:08:28;101824.00;;;12.10
20736;BMP180;10528;52.124;5.196;2023-02-01T00:11:09;101835.00;;;12.10
20736;BMP180;10528;52.124;5.196;2023-02-01T00:13:40;101831.00;;;12.10
20736;BMP180;10528;52.124;5.196;2023-02-01T00:18:40;101828.00;;;12.10
20736;BMP180;10528;52.124;5.196;2023-02-01T00:21:09;101816.00;;;12.10
20736;BMP180;10528;52.124;5.196;2023-02-01T00:23:37;101821.00;;;12.10
20736;BMP180;10528;52.124;5.196;2023-02-01T00:26:07;101819.00;;;12.10
20736;BMP180;10528;52.124;5.196;2023-02-01T00:28:37;101823.00;;;12.20
20736;BMP180;10528;52.124;5.196;2023-02-01T00:31:04;101823.00;;;12.20
20736;BMP180;10528;52.124;5.196;2023-02-01T00:33:32;101819.00;;;12.20
20736;BMP180;10528;52.124;5.196;2023-02-01T00:36:03;101822.00;;;12.20
20736;BMP180;10528;52.124;5.196;2023-02-01T00:38:32;101822.00;;;12.20
20736;BMP180;10528;52.124;5.196;2023-02-01T00:41:16;101816.00;;;12.20
20736;BMP180;10528;52.124;5.196;2023-02-01T00:43:44;101810.00;;;12.20
20736;BMP180;10528;52.124;5.196;2023-02-01T00:46:13;101818.00;;;12.20
20736;BMP180;10528;52.124;5.196;2023-02-01T00:48:40;101826.00;;;12.20
20736;BMP180;10528;52.124;5.196;2023-02-01T00:51:15;101818.00;;;12.20
20736;BMP180;10528;52.124;5.196;2023-02-01T00:53:43;101821.00;;;12.20
20736;BMP180;10528;52.124;5.196;2023-02-01T00:56:11;101811.00;;;12.20
20736;BMP180;10528;52.124;5.196;2023-02-01T00:58:40;101808.00;;;12.20
20736;BMP180;10528;52.124;5.196;2023-02-01T01:01:16;101805.00;;;12.30
20736;BMP180;10528;52.124;5.196;2023-02-01T01:03:54;101816.00;;;12.30
20736;BMP180;10528;52.124;5.196;2023-02-01T01:06:28;101809.00;;;12.30
20736;BMP180;10528;52.124;5.196;2023-02-01T01:08:57;101812.00;;;12.40
20736;BMP180;10528;52.124;5.196;2023-02-01T01:11:29;101796.00;;;12.40
20736;BMP180;10528;52.124;5.196;2023-02-01T01:13:58;101797.00;;;12.40
20736;BMP180;10528;52.124;5.196;2023-02-01T01:16:27;101807.00;;;12.30
20736;BMP180;10528;52.124;5.196;2023-02-01T01:18:56;101804.00;;;12.30
20736;BMP180;10528;52.124;5.196;2023-02-01T01:21:24;101812.00;;;12.40
20736;BMP180;10528;52.124;5.196;2023-02-01T01:23:52;101805.00;;;12.40
20736;BMP180;10528;52.124;5.196;2023-02-01T01:26:23;101798.00;;;12.40
20736;BMP180;10528;52.124;5.196;2023-02-01T01:28:51;101789.00;;;12.40
20736;BMP180;10528;52.124;5.196;2023-02-01T01:31:20;101798.00;;;12.40
20736;BMP180;10528;52.124;5.196;2023-02-01T01:33:54;101802.00;;;12.40
20736;BMP180;10528;52.124;5.196;2023-02-01T01:36:21;101798.00;;;12.40
20736;BMP180;10528;52.124;5.196;2023-02-01T01:38:48;101798.00;;;12.50
20736;BMP180;10528;52.124;5.196;2023-02-01T01:41:23;101800.00;;;12.50
20736;BMP180;10528;52.124;5.196;2023-02-01T01:44:04;101805.00;;;12.50
20736;BMP180;10528;52.124;5.196;2023-02-01T01:46:35;101808.00;;;12.50
20736;BMP180;10528;52.124;5.196;2023-02-01T01:49:12;101794.00;;;12.50
20736;BMP180;10528;52.124;5.196;2023-02-01T01:51:49;101785.00;;;12.40
20736;BMP180;10528;52.124;5.196;2023-02-01T01:54:34;101790.00;;;12.50
20736;BMP180;10528;52.124;5.196;2023-02-01T01:57:50;101781.00;;;12.50
20736;BMP180;10528;52.124;5.196;2023-02-01T02:00:15;101778.00;;;12.50
20736;BMP180;10528;52.124;5.196;2023-02-01T02:02:47;101770.00;;;12.60
20736;BMP180;10528;52.124;5.196;2023-02-01T02:05:16;101778.00;;;12.50
20736;BMP180;10528;52.124;5.196;2023-02-01T02:07:48;101773.00;;;12.50
20736;BMP180;10528;52.124;5.196;2023-02-01T02:10:16;101771.00;;;12.50
20736;BMP180;10528;52.124;5.196;2023-02-01T02:12:46;101777.00;;;12.50
20736;BMP180;10528;52.124;5.196;2023-02-01T02:15:16;101774.00;;;12.50
20736;BMP180;10528;52.124;5.196;2023-02-01T02:18:07;101764.00;;;12.50
20736;BMP180;10528;52.124;5.196;2023-02-01T02:26:56;101755.00;;;12.70
20736;BMP180;10528;52.124;5.196;2023-02-01T02:38:58;101732.00;;;12.70
20736;BMP180;10528;52.124;5.196;2023-02-01T02:42:14;101736.00;;;12.70
20736;BMP180;10528;52.124;5.196;2023-02-01T02:45:10;101732.00;;;12.70
20736;BMP180;10528;52.124;5.196;2023-02-01T02:48:11;101742.00;;;12.70
20736;BMP180;10528;52.124;5.196;2023-02-01T02:50:59;101748.00;;;12.70
20736;BMP180;10528;52.124;5.196;2023-02-01T02:54:10;101748.00;;;12.70
20736;BMP180;10528;52.124;5.196;2023-02-01T02:56:59;101731.00;;;12.80
20736;BMP180;10528;52.124;5.196;2023-02-01T02:59:47;101705.00;;;12.80
20736;BMP180;10528;52.124;5.196;2023-02-01T03:02:34;101708.00;;;12.80
20736;BMP180;10528;52.124;5.196;2023-02-01T03:05:20;101727.00;;;12.80
20736;BMP180;10528;52.124;5.196;2023-02-01T03:08:03;101728.00;;;12.90
20736;BMP180;10528;52.124;5.196;2023-02-01T03:13:58;101706.00;;;12.70
20736;BMP180;10528;52.124;5.196;2023-02-01T03:21:50;101710.00;;;12.70
20736;BMP180;10528;52.124;5.196;2023-02-01T03:24:26;101715.00;;;12.70
20736;BMP180;10528;52.124;5.196;2023-02-01T03:30:06;101704.00;;;12.70
20736;BMP180;10528;52.124;5.196;2023-02-01T03:32:38;101713.00;;;12.50
20736;BMP180;10528;52.124;5.196;2023-02-01T03:35:45;101722.00;;;12.50
20736;BMP180;10528;52.124;5.196;2023-02-01T03:38:25;101720.00;;;12.50
20736;BMP180;10528;52.124;5.196;2023-02-01T03:41:15;101718.00;;;12.50
20736;BMP180;10528;52.124;5.196;2023-02-01T03:44:04;101713.00;;;12.60
20736;BMP180;10528;52.124;5.196;2023-02-01T03:46:45;101718.00;;;12.50
20736;BMP180;10528;52.124;5.196;2023-02-01T03:49:26;101723.00;;;12.50
20736;BMP180;10528;52.124;5.196;2023-02-01T03:51:56;101724.00;;;12.60
20736;BMP180;10528;52.124;5.196;2023-02-01T03:54:27;101724.00;;;12.70
20736;BMP180;10528;52.124;5.196;2023-02-01T03:56:59;101727.00;;;12.70
20736;BMP180;10528;52.124;5.196;2023-02-01T03:59:27;101712.00;;;12.70
20736;BMP180;10528;52.124;5.196;2023-02-01T04:01:54;101725.00;;;12.70
20736;BMP180;10528;52.124;5.196;2023-02-01T04:04:21;101722.00;;;12.80
20736;BMP180;10528;52.124;5.196;2023-02-01T04:06:52;101734.00;;;12.80
20736;BMP180;10528;52.124;5.196;2023-02-01T04:09:20;101735.00;;;12.80
20736;BMP180;10528;52.124;5.196;2023-02-01T04:11:46;101730.00;;;12.80
20736;BMP180;10528;52.124;5.196;2023-02-01T04:14:13;101711.00;;;12.90
20736;BMP180;10528;52.124;5.196;2023-02-01T04:16:40;101707.00;;;12.90
20736;BMP180;10528;52.124;5.196;2023-02-01T04:19:07;101723.00;;;12.80
20736;BMP180;10528;52.124;5.196;2023-02-01T04:21:34;101721.00;;;12.90
20736;BMP180;10528;52.124;5.196;2023-02-01T04:24:01;101729.00;;;12.90
20736;BMP180;10528;52.124;5.196;2023-02-01T04:26:28;101721.00;;;12.90
20736;BMP180;10528;52.124;5.196;2023-02-01T04:28:55;101718.00;;;12.70
20736;BMP180;10528;52.124;5.196;2023-02-01T04:31:22;101735.00;;;12.70
20736;BMP180;10528;52.124;5.196;2023-02-01T04:33:54;101729.00;;;12.80
20736;BMP180;10528;52.124;5.196;2023-02-01T04:36:22;101724.00;;;12.90
20736;BMP180;10528;52.124;5.196;2023-02-01T04:38:50;101736.00;;;12.90
20736;BMP180;10528;52.124;5.196;2023-02-01T04:41:17;101715.00;;;12.90
20736;BMP180;10528;52.124;5.196;2023-02-01T04:43:50;101730.00;;;12.70
20736;BMP180;10528;52.124;5.196;2023-02-01T04:46:19;101708.00;;;12.80
20736;BMP180;10528;52.124;5.196;2023-02-01T04:48:46;101709.00;;;12.90
20736;BMP180;10528;52.124;5.196;2023-02-01T04:51:13;101714.00;;;12.90
20736;BMP180;10528;52.124;5.196;2023-02-01T04:53:41;101714.00;;;12.90
20736;BMP180;10528;52.124;5.196;2023-02-01T04:56:08;101699.00;;;12.80
20736;BMP180;10528;52.124;5.196;2023-02-01T04:58:36;101696.00;;;12.90
20736;BMP180;10528;52.124;5.196;2023-02-01T05:01:04;101712.00;;;12.90
20736;BMP180;10528;52.124;5.196;2023-02-01T05:03:35;101696.00;;;12.80
20736;BMP180;10528;52.124;5.196;2023-02-01T05:06:02;101718.00;;;12.80
20736;BMP180;10528;52.124;5.196;2023-02-01T05:08:32;101725.00;;;12.70
20736;BMP180;10528;52.124;5.196;2023-02-01T05:10:59;101710.00;;;12.70
20736;BMP180;10528;52.124;5.196;2023-02-01T05:13:29;101704.00;;;12.70
20736;BMP180;10528;52.124;5.196;2023-02-01T05:16:15;101698.00;;;12.70
20736;BMP180;10528;52.124;5.196;2023-02-01T05:18:42;101700.00;;;12.60
20736;BMP180;10528;52.124;5.196;2023-02-01T05:21:09;101706.00;;;12.60
20736;BMP180;10528;52.124;5.196;2023-02-01T05:23:36;101700.00;;;12.60
20736;BMP180;10528;52.124;5.196;2023-02-01T05:26:23;101716.00;;;12.70
20736;BMP180;10528;52.124;5.196;2023-02-01T05:28:51;101705.00;;;12.70
20736;BMP180;10528;52.124;5.196;2023-02-01T05:31:18;101710.00;;;12.80
20736;BMP180;10528;52.124;5.196;2023-02-01T05:33:45;101703.00;;;12.70
20736;BMP180;10528;52.124;5.196;2023-02-01T05:36:12;101713.00;;;12.80
20736;BMP180;10528;52.124;5.196;2023-02-01T05:38:39;101727.00;;;12.80
20736;BMP180;10528;52.124;5.196;2023-02-01T05:41:06;101723.00;;;12.70
20736;BMP180;10528;52.124;5.196;2023-02-01T05:43:33;101725.00;;;12.80
20736;BMP180;10528;52.124;5.196;2023-02-01T05:46:00;101724.00;;;12.80
20736;BMP180;10528;52.124;5.196;2023-02-01T05:48:27;101720.00;;;12.80
20736;BMP180;10528;52.124;5.196;2023-02-01T05:50:54;101720.00;;;12.80
20736;BMP180;10528;52.124;5.196;2023-02-01T05:53:21;101719.00;;;12.80
20736;BMP180;10528;52.124;5.196;2023-02-01T05:55:48;101724.00;;;12.80
20736;BMP180;10528;52.124;5.196;2023-02-01T05:58:15;101715.00;;;12.80
20736;BMP180;10528;52.124;5.196;2023-02-01T06:00:42;101714.00;;;12.80
20736;BMP180;10528;52.124;5.196;2023-02-01T06:03:09;101719.00;;;12.90
20736;BMP180;10528;52.124;5.196;2023-02-01T06:05:36;101707.00;;;12.90
20736;BMP180;10528;52.124;5.196;2023-02-01T06:08:03;101713.00;;;12.90
20736;BMP180;10528;52.124;5.196;2023-02-01T06:10:30;101712.00;;;12.90
20736;BMP180;10528;52.124;5.196;2023-02-01T06:12:57;101721.00;;;12.90
20736;BMP180;10528;52.124;5.196;2023-02-01T06:15:24;101727.00;;;12.90
20736;BMP180;10528;52.124;5.196;2023-02-01T06:17:51;101731.00;;;12.80
20736;BMP180;10528;52.124;5.196;2023-02-01T06:20:18;101729.00;;;12.90
20736;BMP180;10528;52.124;5.196;2023-02-01T06:22:45;101728.00;;;12.80
20736;BMP180;10528;52.124;5.196;2023-02-01T06:25:12;101733.00;;;12.70
20736;BMP180;10528;52.124;5.196;2023-02-01T06:27:39;101730.00;;;12.80
20736;BMP180;10528;52.124;5.196;2023-02-01T06:30:07;101723.00;;;12.80
20736;BMP180;10528;52.124;5.196;2023-02-01T06:32:34;101744.00;;;12.80
20736;BMP180;10528;52.124;5.196;2023-02-01T06:35:01;101741.00;;;12.80
20736;BMP180;10528;52.124;5.196;2023-02-01T06:37:27;101738.00;;;12.70
20736;BMP180;10528;52.124;5.196;2023-02-01T06:39:56;101740.00;;;12.80
20736;BMP180;10528;52.124;5.196;2023-02-01T06:42:22;101733.00;;;12.80
20736;BMP180;10528;52.124;5.196;2023-02-01T06:44:49;101732.00;;;12.80
20736;BMP180;10528;52.124;5.196;2023-02-01T06:47:16;101731.00;;;12.80
20736;BMP180;10528;52.124;5.196;2023-02-01T06:49:43;101742.00;;;12.60
20736;BMP180;10528;52.124;5.196;2023-02-01T06:52:10;101739.00;;;12.70
20736;BMP180;10528;52.124;5.196;2023-02-01T06:54:37;101740.00;;;12.70
20736;BMP180;10528;52.124;5.196;2023-02-01T06:57:04;101742.00;;;12.60
20736;BMP180;10528;52.124;5.196;2023-02-01T06:59:31;101740.00;;;12.70
20736;BMP180;10528;52.124;5.196;2023-02-01T07:01:58;101753.00;;;12.80
20736;BMP180;10528;52.124;5.196;2023-02-01T07:04:25;101735.00;;;12.80
20736;BMP180;10528;52.124;5.196;2023-02-01T07:06:52;101728.00;;;12.80
20736;BMP180;10528;52.124;5.196;2023-02-01T07:09:19;101722.00;;;12.80
20736;BMP180;10528;52.124;5.196;2023-02-01T07:11:46;101739.00;;;12.80
20736;BMP180;10528;52.124;5.196;2023-02-01T07:14:13;101739.00;;;12.80
20736;BMP180;10528;52.124;5.196;2023-02-01T07:16:40;101735.00;;;12.70
20736;BMP180;10528;52.124;5.196;2023-02-01T07:19:07;101735.00;;;12.70
20736;BMP180;10528;52.124;5.196;2023-02-01T07:21:34;101741.00;;;12.70
20736;BMP180;10528;52.124;5.196;2023-02-01T07:24:01;101745.00;;;12.70
20736;BMP180;10528;52.124;5.196;2023-02-01T07:26:27;101728.00;;;12.80
20736;BMP180;10528;52.124;5.196;2023-02-01T07:28:54;101738.00;;;12.70
20736;BMP180;10528;52.124;5.196;2023-02-01T07:31:21;101727.00;;;12.70
20736;BMP180;10528;52.124;5.196;2023-02-01T07:33:49;101740.00;;;12.80
20736;BMP180;10528;52.124;5.196;2023-02-01T07:36:19;101736.00;;;12.80
20736;BMP180;10528;52.124;5.196;2023-02-01T07:38:47;101742.00;;;12.70
20736;BMP180;10528;52.124;5.196;2023-02-01T07:41:15;101730.00;;;12.70
20736;BMP180;10528;52.124;5.196;2023-02-01T07:43:42;101739.00;;;12.80
20736;BMP180;10528;52.124;5.196;2023-02-01T07:46:10;101738.00;;;12.80
20736;BMP180;10528;52.124;5.196;2023-02-01T07:48:38;101743.00;;;12.60
20736;BMP180;10528;52.124;5.196;2023-02-01T07:51:10;101738.00;;;12.80
20736;BMP180;10528;52.124;5.196;2023-02-01T07:53:38;101747.00;;;12.60
20736;BMP180;10528;52.124;5.196;2023-02-01T07:56:15;101746.00;;;12.50
20736;BMP180;10528;52.124;5.196;2023-02-01T07:58:47;101749.00;;;12.70
20736;BMP180;10528;52.124;5.196;2023-02-01T08:01:24;101750.00;;;12.80
20736;BMP180;10528;52.124;5.196;2023-02-01T08:04:01;101751.00;;;12.80
20736;BMP180;10528;52.124;5.196;2023-02-01T08:06:32;101760.00;;;12.90
20736;BMP180;10528;52.124;5.196;2023-02-01T08:09:01;101760.00;;;12.80
20736;BMP180;10528;52.124;5.196;2023-02-01T08:11:29;101758.00;;;12.90
20736;BMP180;10528;52.124;5.196;2023-02-01T08:13:57;101750.00;;;12.80
20736;BMP180;10528;52.124;5.196;2023-02-01T08:16:24;101754.00;;;12.80
20736;BMP180;10528;52.124;5.196;2023-02-01T08:18:52;101753.00;;;12.80
20736;BMP180;10528;52.124;5.196;2023-02-01T08:21:29;101753.00;;;12.80
20736;BMP180;10528;52.124;5.196;2023-02-01T08:24:06;101747.00;;;12.80
20736;BMP180;10528;52.124;5.196;2023-02-01T08:26:35;101745.00;;;12.90
20736;BMP180;10528;52.124;5.196;2023-02-01T08:29:06;101728.00;;;12.80
20736;BMP180;10528;52.124;5.196;2023-02-01T08:31:33;101738.00;;;12.90
20736;BMP180;10528;52.124;5.196;2023-02-01T08:34:02;101727.00;;;12.80
20736;BMP180;10528;52.124;5.196;2023-02-01T08:36:32;101731.00;;;12.70
20736;BMP180;10528;52.124;5.196;2023-02-01T08:38:59;101737.00;;;12.90
20736;BMP180;10528;52.124;5.196;2023-02-01T08:41:29;101736.00;;;12.80
20736;BMP180;10528;52.124;5.196;2023-02-01T08:43:57;101730.00;;;12.90
20736;BMP180;10528;52.124;5.196;2023-02-01T08:46:25;101730.00;;;12.80
20736;BMP180;10528;52.124;5.196;2023-02-01T08:48:52;101731.00;;;12.70
20736;BMP180;10528;52.124;5.196;2023-02-01T08:51:21;101739.00;;;12.70
20736;BMP180;10528;52.124;5.196;2023-02-01T08:53:50;101742.00;;;12.60
20736;BMP180;10528;52.124;5.196;2023-02-01T08:56:20;101732.00;;;12.70
20736;BMP180;10528;52.124;5.196;2023-02-01T08:58:47;101742.00;;;12.90
20736;BMP180;10528;52.124;5.196;2023-02-01T09:01:16;101731.00;;;12.90
20736;BMP180;10528;52.124;5.196;2023-02-01T09:03:44;101726.00;;;12.80
20736;BMP180;10528;52.124;5.196;2023-02-01T09:06:14;101725.00;;;12.90
20736;BMP180;10528;52.124;5.196;2023-02-01T09:08:42;101722.00;;;13.10
20736;BMP180;10528;52.124;5.196;2023-02-01T09:11:17;101726.00;;;13.10
20736;BMP180;10528;52.124;5.196;2023-02-01T09:13:47;101719.00;;;13.10
20736;BMP180;10528;52.124;5.196;2023-02-01T09:16:14;101702.00;;;13.00
20736;BMP180;10528;52.124;5.196;2023-02-01T09:18:41;101714.00;;;13.20
20736;BMP180;10528;52.124;5.196;2023-02-01T09:21:28;101711.00;;;13.30
20736;BMP180;10528;52.124;5.196;2023-02-01T09:23:55;101709.00;;;13.50
20736;BMP180;10528;52.124;5.196;2023-02-01T09:26:21;101712.00;;;13.40
20736;BMP180;10528;52.124;5.196;2023-02-01T09:28:58;101708.00;;;13.50
20736;BMP180;10528;52.124;5.196;2023-02-01T09:31:25;101721.00;;;13.50
20736;BMP180;10528;52.124;5.196;2023-02-01T09:33:53;101728.00;;;13.70
20736;BMP180;10528;52.124;5.196;2023-02-01T09:36:19;101737.00;;;13.70
20736;BMP180;10528;52.124;5.196;2023-02-01T09:38:46;101728.00;;;13.70
20736;BMP180;10528;52.124;5.196;2023-02-01T09:47:47;101719.00;;;13.50
20736;BMP180;10528;52.124;5.196;2023-02-01T09:50:21;101717.00;;;13.60
20736;BMP180;10528;52.124;5.196;2023-02-01T09:53:29;101724.00;;;13.60
20736;BMP180;10528;52.124;5.196;2023-02-01T09:56:11;101720.00;;;13.60
20736;BMP180;10528;52.124;5.196;2023-02-01T09:59:08;101714.00;;;13.60
20736;BMP180;10528;52.124;5.196;2023-02-01T10:01:37;101714.00;;;13.60
20736;BMP180;10528;52.124;5.196;2023-02-01T10:04:12;101715.00;;;13.60
20736;BMP180;10528;52.124;5.196;2023-02-01T10:06:57;101716.00;;;13.60
20736;BMP180;10528;52.124;5.196;2023-02-01T10:18:37;101725.00;;;13.50
20736;BMP180;10528;52.124;5.196;2023-02-01T10:27:28;101724.00;;;13.40
20736;BMP180;10528;52.124;5.196;2023-02-01T10:30:19;101722.00;;;13.40
20736;BMP180;10528;52.124;5.196;2023-02-01T10:33:23;101736.00;;;13.30
20736;BMP180;10528;52.124;5.196;2023-02-01T10:36:23;101739.00;;;13.40
20736;BMP180;10528;52.124;5.196;2023-02-01T10:38:52;101726.00;;;13.30
20736;BMP180;10528;52.124;5.196;2023-02-01T10:41:25;101715.00;;;13.10
20736;BMP180;10528;52.124;5.196;2023-02-01T10:43:58;101726.00;;;13.30
20736;BMP180;10528;52.124;5.196;2023-02-01T10:46:26;101728.00;;;13.30
20736;BMP180;10528;52.124;5.196;2023-02-01T10:48:55;101730.00;;;13.40
20736;BMP180;10528;52.124;5.196;2023-02-01T10:54:32;101699.00;;;13.50
20736;BMP180;10528;52.124;5.196;2023-02-01T10:57:00;101694.00;;;13.60
20736;BMP180;10528;52.124;5.196;2023-02-01T10:59:29;101706.00;;;13.50
20736;BMP180;10528;52.124;5.196;2023-02-01T11:02:05;101699.00;;;13.50
20736;BMP180;10528;52.124;5.196;2023-02-01T11:04:39;101694.00;;;13.60
20736;BMP180;10528;52.124;5.196;2023-02-01T11:07:27;101697.00;;;13.50
20736;BMP180;10528;52.124;5.196;2023-02-01T11:09:55;101698.00;;;13.60
20736;BMP180;10528;52.124;5.196;2023-02-01T11:12:37;101695.00;;;13.70
20736;BMP180;10528;52.124;5.196;2023-02-01T11:15:23;101712.00;;;13.50
20736;BMP180;10528;52.124;5.196;2023-02-01T11:17:52;101687.00;;;13.60
20736;BMP180;10528;52.124;5.196;2023-02-01T11:20:40;101711.00;;;13.60
20736;BMP180;10528;52.124;5.196;2023-02-01T11:23:24;101684.00;;;13.40
20736;BMP180;10528;52.124;5.196;2023-02-01T11:26:01;101694.00;;;13.50
20736;BMP180;10528;52.124;5.196;2023-02-01T11:28:32;101700.00;;;13.50
20736;BMP180;10528;52.124;5.196;2023-02-01T11:31:05;101689.00;;;13.60
20736;BMP180;10528;52.124;5.196;2023-02-01T11:33:37;101699.00;;;13.60
20736;BMP180;10528;52.124;5.196;2023-02-01T11:36:33;101696.00;;;13.70
20736;BMP180;10528;52.124;5.196;2023-02-01T11:42:13;101704.00;;;13.80
20736;BMP180;10528;52.124;5.196;2023-02-01T11:44:46;101704.00;;;13.90
20736;BMP180;10528;52.124;5.196;2023-02-01T11:47:30;101695.00;;;13.90
20736;BMP180;10528;52.124;5.196;2023-02-01T11:50:15;101695.00;;;14.00
20736;BMP180;10528;52.124;5.196;2023-02-01T11:53:09;101703.00;;;13.90
20736;BMP180;10528;52.124;5.196;2023-02-01T11:56:00;101698.00;;;14.00
20736;BMP180;10528;52.124;5.196;2023-02-01T11:59:02;101696.00;;;13.90
20736;BMP180;10528;52.124;5.196;2023-02-01T12:02:39;101684.00;;;14.00
20736;BMP180;10528;52.124;5.196;2023-02-01T12:05:59;101682.00;;;14.00
20736;BMP180;10528;52.124;5.196;2023-02-01T12:11:59;101679.00;;;14.00
20736;BMP180;10528;52.124;5.196;2023-02-01T12:15:22;101674.00;;;14.00
20736;BMP180;10528;52.124;5.196;2023-02-01T12:21:52;101682.00;;;14.10
20736;BMP180;10528;52.124;5.196;2023-02-01T12:39:29;101665.00;;;14.10
20736;BMP180;10528;52.124;5.196;2023-02-01T12:42:16;101662.00;;;14.10
20736;BMP180;10528;52.124;5.196;2023-02-01T12:44:59;101670.00;;;14.10
20736;BMP180;10528;52.124;5.196;2023-02-01T12:47:41;101672.00;;;14.10
20736;BMP180;10528;52.124;5.196;2023-02-01T12:50:17;101664.00;;;14.10
20736;BMP180;10528;52.124;5.196;2023-02-01T12:52:52;101679.00;;;14.20
20736;BMP180;10528;52.124;5.196;2023-02-01T12:55:36;101657.00;;;14.20
20736;BMP180;10528;52.124;5.196;2023-02-01T12:58:32;101684.00;;;14.20
20736;BMP180;10528;52.124;5.196;2023-02-01T13:01:45;101671.00;;;14.10
20736;BMP180;10528;52.124;5.196;2023-02-01T13:04:32;101666.00;;;14.20
20736;BMP180;10528;52.124;5.196;2023-02-01T13:07:14;101665.00;;;14.20
20736;BMP180;10528;52.124;5.196;2023-02-01T13:10:11;101674.00;;;14.30
20736;BMP180;10528;52.124;5.196;2023-02-01T13:12:58;101676.00;;;14.30
20736;BMP180;10528;52.124;5.196;2023-02-01T13:15:42;101670.00;;;14.20
20736;BMP180;10528;52.124;5.196;2023-02-01T13:18:18;101678.00;;;14.30
20736;BMP180;10528;52.124;5.196;2023-02-01T13:20:59;101663.00;;;14.10
20736;BMP180;10528;52.124;5.196;2023-02-01T13:23:37;101674.00;;;14.20
20736;BMP180;10528;52.124;5.196;2023-02-01T13:26:04;101669.00;;;14.20
20736;BMP180;10528;52.124;5.196;2023-02-01T13:34:49;101673.00;;;14.20
20736;BMP180;10528;52.124;5.196;2023-02-01T13:40:37;101678.00;;;14.20
20736;BMP180;10528;52.124;5.196;2023-02-01T13:43:19;101680.00;;;14.20
20736;BMP180;10528;52.124;5.196;2023-02-01T13:45:53;101679.00;;;14.20
20736;BMP180;10528;52.124;5.196;2023-02-01T13:48:51;101678.00;;;14.20
20736;BMP180;10528;52.124;5.196;2023-02-01T13:51:37;101684.00;;;14.30
20736;BMP180;10528;52.124;5.196;2023-02-01T13:54:24;101675.00;;;14.30
20736;BMP180;10528;52.124;5.196;2023-02-01T13:56:53;101670.00;;;14.40
20736;BMP180;10528;52.124;5.196;2023-02-01T14:10:59;101685.00;;;14.30
20736;BMP180;10528;52.124;5.196;2023-02-01T14:13:38;101681.00;;;14.40
20736;BMP180;10528;52.124;5.196;2023-02-01T14:21:34;101682.00;;;14.40
20736;BMP180;10528;52.124;5.196;2023-02-01T14:24:27;101684.00;;;14.40
20736;BMP180;10528;52.124;5.196;2023-02-01T14:27:13;101664.00;;;14.30
20736;BMP180;10528;52.124;5.196;2023-02-01T14:29:57;101682.00;;;14.40
20736;BMP180;10528;52.124;5.196;2023-02-01T14:32:34;101678.00;;;14.30
20736;BMP180;10528;52.124;5.196;2023-02-01T14:35:08;101678.00;;;14.30
20736;BMP180;10528;52.124;5.196;2023-02-01T14:37:44;101684.00;;;14.40
20736;BMP180;10528;52.124;5.196;2023-02-01T14:55:44;101688.00;;;14.30
20736;BMP180;10528;52.124;5.196;2023-02-01T15:01:23;101697.00;;;14.30
20736;BMP180;10528;52.124;5.196;2023-02-01T15:04:13;101691.00;;;14.30
20736;BMP180;10528;52.124;5.196;2023-02-01T15:06:55;101696.00;;;14.30
20736;BMP180;10528;52.124;5.196;2023-02-01T15:09:30;101693.00;;;14.30
20736;BMP180;10528;52.124;5.196;2023-02-01T15:12:16;101691.00;;;14.30
20736;BMP180;10528;52.124;5.196;2023-02-01T15:17:41;101705.00;;;14.40
20736;BMP180;10528;52.124;5.196;2023-02-01T15:20:32;101709.00;;;14.40
20736;BMP180;10528;52.124;5.196;2023-02-01T15:23:16;101702.00;;;14.30
20736;BMP180;10528;52.124;5.196;2023-02-01T15:25:46;101708.00;;;14.40
20736;BMP180;10528;52.124;5.196;2023-02-01T15:28:15;101712.00;;;14.40
20736;BMP180;10528;52.124;5.196;2023-02-01T15:31:04;101704.00;;;14.40
20736;BMP180;10528;52.124;5.196;2023-02-01T15:33:32;101713.00;;;14.40
20736;BMP180;10528;52.124;5.196;2023-02-01T15:38:35;101714.00;;;14.40
20736;BMP180;10528;52.124;5.196;2023-02-01T15:41:21;101711.00;;;14.40
20736;BMP180;10528;52.124;5.196;2023-02-01T15:46:33;101715.00;;;14.40
20736;BMP180;10528;52.124;5.196;2023-02-01T15:49:02;101731.00;;;14.40
20736;BMP180;10528;52.124;5.196;2023-02-01T15:51:31;101739.00;;;14.40
20736;BMP180;10528;52.124;5.196;2023-02-01T15:54:08;101735.00;;;14.40
20736;BMP180;10528;52.124;5.196;2023-02-01T15:56:41;101730.00;;;14.40
20736;BMP180;10528;52.124;5.196;2023-02-01T15:59:17;101725.00;;;14.40
20736;BMP180;10528;52.124;5.196;2023-02-01T16:01:46;101740.00;;;14.40
20736;BMP180;10528;52.124;5.196;2023-02-01T16:04:29;101725.00;;;14.40
20736;BMP180;10528;52.124;5.196;2023-02-01T16:07:00;101739.00;;;14.40
20736;BMP180;10528;52.124;5.196;2023-02-01T16:09:57;101747.00;;;14.40
20736;BMP180;10528;52.124;5.196;2023-02-01T16:15:12;101732.00;;;14.40
20736;BMP180;10528;52.124;5.196;2023-02-01T16:17:39;101733.00;;;14.40
20736;BMP180;10528;52.124;5.196;2023-02-01T16:20:07;101724.00;;;14.50
20736;BMP180;10528;52.124;5.196;2023-02-01T16:22:34;101722.00;;;14.40
20736;BMP180;10528;52.124;5.196;2023-02-01T16:25:00;101733.00;;;14.50
20736;BMP180;10528;52.124;5.196;2023-02-01T16:27:28;101731.00;;;14.50
20736;BMP180;10528;52.124;5.196;2023-02-01T16:29:55;101745.00;;;14.30
20736;BMP180;10528;52.124;5.196;2023-02-01T16:32:23;101742.00;;;14.40
20736;BMP180;10528;52.124;5.196;2023-02-01T16:34:50;101737.00;;;14.40
20736;BMP180;10528;52.124;5.196;2023-02-01T16:37:23;101748.00;;;14.40
20736;BMP180;10528;52.124;5.196;2023-02-01T16:39:50;101747.00;;;14.40
20736;BMP180;10528;52.124;5.196;2023-02-01T16:42:17;101754.00;;;14.40
20736;BMP180;10528;52.124;5.196;2023-02-01T16:44:44;101742.00;;;14.40
20736;BMP180;10528;52.124;5.196;2023-02-01T16:47:17;101768.00;;;14.40
20736;BMP180;10528;52.124;5.196;2023-02-01T16:49:48;101753.00;;;14.40
20736;BMP180;10528;52.124;5.196;2023-02-01T16:52:19;101760.00;;;14.40